Latest Weather Observations for Sellicks Hill

IDS60901

Issued at 9:31 pm CDT Friday 6 December 2019 (issued every 10 minutes, with the page automatically refreshed every 10 minutes)

About weather observations | Map of Adelaide area stations | Latest observations for Adelaide area | Other Formats
Station Details ID: 023886 Name: MOUNT TERRIBLE RADAR Lat: -35.33 Lon: 138.50 Height: 385.7 m
Data from the previous 72 hours. | See also: Recent months at Sellicks Hill
Date/Time
CDT
Temp
°C
App
Temp
°C
Dew
Point
°C
Rel
Hum
%
Delta-T
°C
Wind Press
QNH
hPa
Press
MSL
hPa
Rain since
9am
mm
Dir  Spd
km/h
Gust
km/h
Spd
kts
Gust
kts
06/09:00pm - - - - - SSE 28 37 15 20 - - -
06/08:30pm - - - - - SSE 28 35 15 19 - - -
06/08:00pm - - - - - S 22 28 12 15 - - -
06/07:30pm - - - - - SSE 26 33 14 18 - - -
06/07:00pm - - - - - SSE 24 32 13 17 - - -
06/06:30pm - - - - - S 17 28 9 15 - - -
06/06:00pm - - - - - SSW 11 20 6 11 - - -
06/05:30pm - - - - - S 13 22 7 12 - - -
06/05:00pm - - - - - S 17 30 9 16 - - -
06/04:30pm - - - - - S 17 28 9 15 - - -
06/04:00pm - - - - - SSE 20 33 11 18 - - -
06/03:30pm - - - - - S 19 28 10 15 - - -
06/03:00pm - - - - - SSW 7 20 4 11 - - -
06/02:30pm - - - - - WSW 6 15 3 8 - - -
06/02:00pm - - - - - WNW 9 20 5 11 - - -
06/01:30pm - - - - - WSW 6 15 3 8 - - -
06/01:00pm - - - - - S 7 20 4 11 - - -
06/12:30pm - - - - - S 9 17 5 9 - - -
06/12:00pm - - - - - S 9 17 5 9 - - -
06/11:30am - - - - - SSW 9 20 5 11 - - -
06/11:00am - - - - - S 11 19 6 10 - - -
06/10:30am - - - - - S 15 26 8 14 - - -
06/10:00am - - - - - S 24 32 13 17 - - -
06/09:30am - - - - - S 11 26 6 14 - - -
06/09:00am - - - - - S 15 26 8 14 - - -
06/08:30am - - - - - S 15 26 8 14 - - -
06/08:00am - - - - - S 11 20 6 11 - - -
06/07:30am - - - - - S 11 22 6 12 - - -
06/07:00am - - - - - S 11 24 6 13 - - -
06/06:30am - - - - - SSW 6 9 3 5 - - -
06/06:00am - - - - - SSW 4 7 2 4 - - -
06/05:30am - - - - - S 7 17 4 9 - - -
06/05:00am - - - - - SSW 4 9 2 5 - - -
06/04:30am - - - - - S 6 11 3 6 - - -
06/04:00am - - - - - S 7 15 4 8 - - -
06/03:30am - - - - - SSE 15 19 8 10 - - -
06/03:00am - - - - - SSE 13 17 7 9 - - -
06/02:30am - - - - - SSE 22 28 12 15 - - -
06/02:00am - - - - - SSE 19 22 10 12 - - -
06/01:30am - - - - - SSE 24 28 13 15 - - -
06/01:00am - - - - - SSE 20 24 11 13 - - -
06/12:30am - - - - - SSE 20 26 11 14 - - -
06/12:00am - - - - - SSE 24 28 13 15 - - -
 
Date/Time
CDT
Temp
°C
App
Temp
°C
Dew
Point
°C
Rel
Hum
%
Delta-T
°C
Wind Press
QNH
hPa
Press
MSL
hPa
Rain since
9am
mm
Dir  Spd
km/h
Gust
km/h
Spd
kts
Gust
kts
05/11:30pm - - - - - SSE 24 30 13 16 - - -
05/11:00pm - - - - - SSE 26 28 14 15 - - -
05/10:30pm - - - - - SSE 26 33 14 18 - - -
05/10:00pm - - - - - SSE 24 28 13 15 - - -
05/09:30pm - - - - - S 26 32 14 17 - - -
05/09:00pm - - - - - S 26 30 14 16 - - -
05/08:30pm - - - - - SSE 20 24 11 13 - - -
05/08:00pm - - - - - S 17 20 9 11 - - -
05/07:30pm - - - - - S 13 22 7 12 - - -
05/07:00pm - - - - - W 4 7 2 4 - - -
05/06:30pm - - - - - WNW 6 9 3 5 - - -
05/06:00pm - - - - - WNW 6 13 3 7 - - -
05/05:30pm - - - - - WNW 7 13 4 7 - - -
05/05:00pm - - - - - WNW 7 17 4 9 - - -
05/04:30pm - - - - - WNW 7 11 4 6 - - -
05/04:00pm - - - - - WNW 7 17 4 9 - - -
05/03:30pm - - - - - W 7 13 4 7 - - -
05/03:00pm - - - - - WNW 7 17 4 9 - - -
05/02:30pm - - - - - WNW 9 19 5 10 - - -
05/02:00pm - - - - - WNW 9 24 5 13 - - -
05/01:30pm - - - - - WNW 9 20 5 11 - - -
05/01:00pm - - - - - WNW 7 17 4 9 - - -
05/12:30pm - - - - - WNW 9 20 5 11 - - -
05/12:00pm - - - - - NW 11 24 6 13 - - -
05/11:30am - - - - - NW 13 24 7 13 - - -
05/11:00am - - - - - NW 11 24 6 13 - - -
05/10:30am - - - - - NW 11 20 6 11 - - -
05/10:00am - - - - - NW 11 20 6 11 - - -
05/09:30am - - - - - NW 11 26 6 14 - - -
05/09:00am - - - - - NW 9 20 5 11 - - -
05/08:30am - - - - - NW 11 20 6 11 - - -
05/08:00am - - - - - NW 9 19 5 10 - - -
05/07:30am - - - - - NW 7 15 4 8 - - -
05/07:00am - - - - - NW 9 20 5 11 - - -
05/06:30am - - - - - NW 9 17 5 9 - - -
05/06:00am - - - - - NW 7 17 4 9 - - -
05/05:30am - - - - - NW 9 15 5 8 - - -
05/05:00am - - - - - NW 7 15 4 8 - - -
05/04:30am - - - - - NW 9 20 5 11 - - -
05/04:00am - - - - - NW 9 20 5 11 - - -
05/03:30am - - - - - NW 9 15 5 8 - - -
05/03:00am - - - - - NW 7 13 4 7 - - -
05/02:30am - - - - - NW 9 15 5 8 - - -
05/02:00am - - - - - NW 7 15 4 8 - - -
05/01:30am - - - - - NW 7 13 4 7 - - -
05/01:00am - - - - - NW 7 15 4 8 - - -
05/12:30am - - - - - WNW 7 13 4 7 - - -
05/12:00am - - - - - WNW 6 11 3 6 - - -
 
Date/Time
CDT
Temp
°C
App
Temp
°C
Dew
Point
°C
Rel
Hum
%
Delta-T
°C
Wind Press
QNH
hPa
Press
MSL
hPa
Rain since
9am
mm
Dir  Spd
km/h
Gust
km/h
Spd
kts
Gust
kts
04/11:30pm - - - - - WNW 7 17 4 9 - - -
04/11:00pm - - - - - NW 7 15 4 8 - - -
04/10:30pm - - - - - NW 7 13 4 7 - - -
04/10:00pm - - - - - NW 6 17 3 9 - - -
04/09:30pm - - - - - NW 7 13 4 7 - - -
04/09:00pm - - - - - NW 7 17 4 9 - - -
04/08:30pm - - - - - NW 7 15 4 8 - - -
04/08:00pm - - - - - NW 9 17 5 9 - - -
04/07:30pm - - - - - NW 9 17 5 9 - - -
04/07:00pm - - - - - NW 7 13 4 7 - - -
04/06:30pm - - - - - NW 7 17 4 9 - - -
04/06:00pm - - - - - NW 7 19 4 10 - - -
04/05:30pm - - - - - NW 9 20 5 11 - - -
04/05:00pm - - - - - WNW 9 17 5 9 - - -
04/04:30pm - - - - - NW 7 17 4 9 - - -
04/04:00pm - - - - - WNW 9 24 5 13 - - -
04/03:30pm - - - - - NW 9 19 5 10 - - -
04/03:00pm - - - - - NW 11 20 6 11 - - -
04/02:30pm - - - - - NW 11 20 6 11 - - -
04/02:00pm - - - - - NW 11 19 6 10 - - -
04/01:30pm - - - - - NW 11 20 6 11 - - -
04/01:00pm - - - - - NW 9 20 5 11 - - -
04/12:30pm - - - - - NW 13 28 7 15 - - -
04/12:00pm - - - - - NW 13 26 7 14 - - -
04/11:30am - - - - - NW 11 22 6 12 - - -
04/11:00am - - - - - NW 11 19 6 10 - - -
04/10:30am - - - - - NW 13 24 7 13 - - -
04/10:00am - - - - - NW 9 19 5 10 - - -
04/09:30am - - - - - NW 11 22 6 12 - - -
04/09:00am - - - - - NW 7 17 4 9 - - -
04/08:30am - - - - - WNW 11 20 6 11 - - -
04/08:00am - - - - - NW 9 19 5 10 - - -
04/07:30am - - - - - NW 7 15 4 8 - - -
04/07:00am - - - - - WNW 9 24 5 13 - - -
04/06:30am - - - - - WNW 9 17 5 9 - - -
04/06:00am - - - - - WNW 7 19 4 10 - - -
04/05:30am - - - - - WNW 7 15 4 8 - - -
04/05:00am - - - - - WNW 7 20 4 11 - - -
04/04:30am - - - - - WNW 7 17 4 9 - - -
04/04:00am - - - - - WNW 7 13 4 7 - - -
04/03:30am - - - - - WNW 6 11 3 6 - - -
04/03:00am - - - - - W 7 15 4 8 - - -
04/02:30am - - - - - W 7 17 4 9 - - -
04/02:00am - - - - - W 4 11 2 6 - - -
04/01:30am - - - - - WSW 6 9 3 5 - - -
04/01:00am - - - - - WSW 7 17 4 9 - - -
04/12:30am - - - - - WSW 6 15 3 8 - - -
04/12:00am - - - - - WSW 7 17 4 9 - - -
 
Date/Time
CDT
Temp
°C
App
Temp
°C
Dew
Point
°C
Rel
Hum
%
Delta-T
°C
Wind Press
QNH
hPa
Press
MSL
hPa
Rain since
9am
mm
Dir  Spd
km/h
Gust
km/h
Spd
kts
Gust
kts
03/11:30pm - - - - - WSW 7 15 4 8 - - -
03/11:00pm - - - - - WSW 7 15 4 8 - - -
03/10:30pm - - - - - SW 7 13 4 7 - - -
03/10:00pm - - - - - SW 9 13 5 7 - - -

Latest Capital City Observations: Canberra | Sydney | Melbourne | Brisbane | Adelaide | Perth | Hobart | Darwin

Other formats

Comma delimited format used in spreadsheet applications
http://www.bom.gov.au/fwo/IDS60901/IDS60901.95679.axf

JavaScript Object Notation format (JSON) in row-major order
http://www.bom.gov.au/fwo/IDS60901/IDS60901.95679.json

Data quality

Most of these data are generated automatically and are frequently updated. Quality checks on data are not normally performed. It is possible for incorrect values to appear. Refer to information at About Latest Weather Observations and please check the disclaimer before using these data.